Main page
METAR-TAF:

METAR-TAF

Airports :

Payerne Air Base

Payerne, Switzerland

latitude: 46-49N, longitude: 006-57E, elevation: 490 m

Current weather observation

The report was made 23 minutes ago, at 09:20 UTC
Wind 4 kt from the North/Northwest, varying between West/Northwest and Northeast
Temperature 14°C
Humidity 82%
Pressure 1005 hPa
Visibility 10 km or more
Few clouds at a height of 1100 ft
Scattered clouds at a height of 4500 ft
Overcast at a height of 5100 ft

METAR: LSMP 190920Z 34004KT 290V050 9999 FEW011 SCT045 OVC051 14/11 Q1005 RMK BLU

Time: 11:43 (09:43 UTC)


TAF: missing

Weather observations and forecasts of more than 4000 airports (METAR and TAF reports).

The available stations are represented by yellow and red dots on the map.

Hover mouse over dot to see the name of the station.

Then click to see weather observations and forecasts.

To change the map : click on the green buttons with a black cross to zoom in, on the green button with a dash to zoom out, or on the green arrows for adjacent maps.


METAR-TAF: